createdAt,value
2022-09-18T00:04:48.974Z,98993.98
2022-09-18T00:19:52.689Z,98986.20
2022-09-18T00:34:55.768Z,98983.77
2022-09-18T00:50:16.301Z,98978.09
2022-09-18T01:05:36.825Z,98980.41
2022-09-18T01:21:02.206Z,98981.73
2022-09-18T01:36:10.315Z,98981.17
2022-09-18T01:51:21.474Z,98983.83
2022-09-18T02:06:32.769Z,98975.30
2022-09-18T02:21:37.244Z,98977.08
2022-09-18T02:37:02.350Z,98971.85
2022-09-18T02:52:14.936Z,98956.02
2022-09-18T03:07:19.272Z,98958.45
2022-09-18T03:22:24.787Z,98970.19
2022-09-18T03:37:28.724Z,98979.58
2022-09-18T03:52:35.842Z,98980.58
2022-09-18T04:07:49.237Z,98980.48
2022-09-18T04:23:14.589Z,98983.95
2022-09-18T04:38:17.753Z,98977.13
2022-09-18T04:53:21.568Z,98980.27
2022-09-18T05:08:24.903Z,98990.36
2022-09-18T05:23:28.289Z,98987.03
2022-09-18T05:38:33.360Z,98982.52
2022-09-18T05:53:36.710Z,98974.20
2022-09-18T06:08:45.322Z,98974.73
2022-09-18T06:23:49.949Z,98983.35
2022-09-18T06:39:09.646Z,98992.77
2022-09-18T06:54:13.687Z,99003.30
2022-09-18T07:09:16.925Z,99005.94
2022-09-18T07:24:30.145Z,99007.95
2022-09-18T07:39:33.618Z,99003.34
2022-09-18T07:54:55.745Z,98998.77
2022-09-18T08:10:07.271Z,99002.04
2022-09-18T08:25:21.640Z,99005.64
2022-09-18T08:40:50.468Z,99015.16
2022-09-18T08:55:58.796Z,99022.96
2022-09-18T09:11:53.186Z,99026.75
2022-09-18T09:26:59.773Z,99030.83
2022-09-18T09:42:35.425Z,99041.16
2022-09-18T09:58:03.409Z,99057.31
2022-09-18T10:13:27.027Z,99075.00
2022-09-18T10:28:33.903Z,99089.09
2022-09-18T10:44:02.370Z,99098.10
2022-09-18T10:59:29.118Z,99102.42
2022-09-18T11:14:42.119Z,99105.35
2022-09-18T11:29:51.506Z,99105.33
2022-09-18T11:45:20.771Z,99101.45
2022-09-18T12:00:31.378Z,99087.16
2022-09-18T12:15:40.243Z,99080.56
2022-09-18T12:31:05.193Z,99081.23
2022-09-18T12:46:19.874Z,99077.70
2022-09-18T13:01:33.915Z,99081.08
2022-09-18T13:16:50.057Z,99078.56
2022-09-18T13:31:54.635Z,99096.02
2022-09-18T13:47:14.361Z,99110.70
2022-09-18T14:02:31.288Z,99115.75
2022-09-18T14:17:37.522Z,99114.67
2022-09-18T14:32:45.449Z,99106.56
2022-09-18T14:47:50.850Z,99098.80
2022-09-18T15:03:00.236Z,99097.60
2022-09-18T15:18:04.149Z,99093.97
2022-09-18T15:33:20.300Z,99094.14
2022-09-18T15:48:51.516Z,99097.59
2022-09-18T16:04:28.072Z,99095.83
2022-09-18T16:19:33.228Z,99104.20
2022-09-18T16:34:37.067Z,99119.93
2022-09-18T16:49:44.049Z,99122.17
2022-09-18T17:04:48.393Z,99128.14
2022-09-18T17:19:52.735Z,99132.98
2022-09-18T17:34:57.948Z,99145.67
2022-09-18T17:50:02.505Z,99154.13
2022-09-18T18:05:07.667Z,99160.63
2022-09-18T18:20:12.391Z,99170.58
2022-09-18T18:35:17.021Z,99171.73
2022-09-18T18:50:22.569Z,99172.27
2022-09-18T19:05:30.624Z,99168.01
2022-09-18T19:20:35.412Z,99169.95
2022-09-18T19:35:39.459Z,99171.02
2022-09-18T19:50:43.657Z,99178.33
2022-09-18T20:05:47.427Z,99178.05
2022-09-18T20:20:52.068Z,99179.62
2022-09-18T20:36:01.287Z,99183.97
2022-09-18T20:51:09.704Z,99180.75
2022-09-18T21:06:23.593Z,99179.70
2022-09-18T21:21:29.226Z,99181.05
2022-09-18T21:36:38.742Z,99181.05
2022-09-18T21:51:42.806Z,99178.19
2022-09-18T22:06:47.127Z,99178.16
2022-09-18T22:21:52.103Z,99179.31
2022-09-18T22:36:56.538Z,99183.21
2022-09-18T22:51:59.634Z,99188.34
2022-09-18T23:07:04.022Z,99186.55
2022-09-18T23:22:10.131Z,99182.45
2022-09-18T23:37:13.609Z,99173.02
2022-09-18T23:52:17.046Z,99174.46
